Time;durP1;ratioP1;P1;durP2;ratioP2;P2;SDS_P1;SDS_P2;PMS_P1;PMS_P2;Temp;Humidity;BMP_temperature;BMP_pressure;BME280_temperature;BME280_humidity;BME280_pressure;Samples;Min_cycle;Max_cycle;Signal;HPM_P1;HPM_P2
2021/09/12 00:01:34;;;;;;;12.40;5.50;;;;;;;17.43;43.03;95129.88;5040939;28;20444;-64
2021/09/12 00:04:02;;;;;;;16.30;5.40;;;;;;;17.22;43.58;95140.81;5038302;28;20442;-66
2021/09/12 00:06:29;;;;;;;10.60;5.90;;;;;;;17.00;43.50;95093.03;5051987;28;20454;-63
2021/09/12 00:08:56;;;;;;;12.30;5.70;;;;;;;17.20;43.55;95126.31;5068423;28;20960;-63
2021/09/12 00:11:23;;;;;;;9.60;5.40;;;;;;;17.03;43.99;95126.06;5061872;28;20505;-64
2021/09/12 00:13:50;;;;;;;10.37;5.13;;;;;;;16.69;44.49;95134.28;5058505;28;20443;-63
2021/09/12 00:16:18;;;;;;;7.07;5.00;;;;;;;16.48;45.24;95135.63;5039116;28;20470;-63
2021/09/12 00:18:46;;;;;;;8.03;5.03;;;;;;;16.30;45.79;95133.72;5047948;28;20961;-63
2021/09/12 00:21:13;;;;;;;8.73;5.10;;;;;;;16.26;46.34;95135.38;5044909;28;21419;-62
2021/09/12 00:23:40;;;;;;;8.07;4.77;;;;;;;16.12;46.73;95142.44;5052589;28;20447;-63
2021/09/12 00:26:07;;;;;;;7.37;4.90;;;;;;;15.89;47.62;95140.59;5051898;28;21104;-63
2021/09/12 00:28:33;;;;;;;13.67;5.70;;;;;;;15.61;48.00;95147.50;5052135;28;20430;-63
2021/09/12 00:31:00;;;;;;;8.70;5.27;;;;;;;15.98;46.78;95141.56;5051546;28;20455;-62
2021/09/12 00:33:31;;;;;;;12.20;5.63;;;;;;;16.15;47.51;95129.44;5052290;28;20442;-63
2021/09/12 00:35:58;;;;;;;11.50;5.70;;;;;;;16.38;46.30;95135.75;5052084;28;20473;-63
2021/09/12 00:38:26;;;;;;;17.63;5.33;;;;;;;15.86;47.35;95138.50;5052436;28;20451;-64
2021/09/12 00:40:59;;;;;;;10.00;5.57;;;;;;;15.27;49.18;95142.25;5052055;28;20446;-63
2021/09/12 00:43:26;;;;;;;9.57;4.93;;;;;;;15.58;48.15;95142.00;5052261;28;20513;-63
2021/09/12 00:45:55;;;;;;;7.37;4.93;;;;;;;15.42;48.55;95144.00;5051738;28;20471;-62
2021/09/12 00:48:23;;;;;;;11.53;5.70;;;;;;;15.69;47.54;95149.53;5052400;28;20529;-63
2021/09/12 00:50:50;;;;;;;9.40;5.50;;;;;;;15.89;47.65;95149.28;5050979;28;20446;-64
2021/09/12 00:53:18;;;;;;;9.43;5.13;;;;;;;15.82;47.71;95132.22;5054570;28;20520;-62
2021/09/12 00:55:45;;;;;;;10.57;5.70;;;;;;;15.71;47.77;95151.91;5054516;28;20439;-62
2021/09/12 00:58:15;;;;;;;18.23;5.30;;;;;;;15.83;47.44;95149.66;5052947;28;20581;-62
2021/09/12 01:00:45;;;;;;;13.93;5.30;;;;;;;15.85;47.50;95139.59;5045648;28;20954;-63
2021/09/12 01:03:12;;;;;;;15.87;6.40;;;;;;;15.43;48.98;95144.78;5052138;28;20477;-63
2021/09/12 01:05:39;;;;;;;10.53;6.20;;;;;;;15.71;47.91;95144.75;5051513;28;20481;-64
2021/09/12 01:08:07;;;;;;;12.03;5.57;;;;;;;15.93;47.89;95152.19;5051764;28;20442;-63
2021/09/12 01:10:34;;;;;;;9.50;5.60;;;;;;;15.96;47.50;95148.97;5051246;28;20451;-63
2021/09/12 01:13:01;;;;;;;13.43;5.67;;;;;;;16.06;47.44;95143.56;5046233;28;20537;-62
2021/09/12 01:15:28;;;;;;;8.17;5.13;;;;;;;15.92;47.45;95143.47;5046758;28;20824;-63
2021/09/12 01:17:55;;;;;;;11.93;5.80;;;;;;;15.99;48.52;95143.91;5051167;28;20450;-62
2021/09/12 01:20:22;;;;;;;11.93;5.47;;;;;;;15.99;48.27;95143.13;5044677;28;20498;-63
2021/09/12 01:22:50;;;;;;;15.03;4.97;;;;;;;16.05;48.15;95152.56;5031089;28;20453;-64
2021/09/12 01:25:18;;;;;;;11.60;5.67;;;;;;;15.98;48.47;95149.47;5045669;28;20483;-63
2021/09/12 01:27:45;;;;;;;8.67;5.87;;;;;;;15.97;47.93;95150.53;5042109;28;20956;-63
2021/09/12 01:30:12;;;;;;;7.43;5.10;;;;;;;15.86;47.77;95149.06;5050756;28;20470;-63
2021/09/12 01:32:39;;;;;;;8.50;5.80;;;;;;;15.83;48.77;95155.72;5042008;28;20880;-63
2021/09/12 01:35:07;;;;;;;10.57;5.90;;;;;;;15.99;48.06;95148.41;5056856;28;20900;-63
2021/09/12 01:37:33;;;;;;;10.63;5.43;;;;;;;16.03;47.47;95144.13;5056498;28;20447;-63
2021/09/12 01:40:00;;;;;;;17.00;6.60;;;;;;;15.94;48.04;95143.19;5053979;28;20442;-63
2021/09/12 01:42:27;;;;;;;10.33;5.63;;;;;;;16.03;47.94;95144.13;5054273;28;20975;-63
2021/09/12 01:44:54;;;;;;;9.70;5.57;;;;;;;16.06;48.10;95143.56;5059561;28;20532;-64
2021/09/12 01:47:21;;;;;;;8.77;5.20;;;;;;;15.97;48.38;95150.53;5046400;28;20992;-63
2021/09/12 01:49:48;;;;;;;12.40;5.60;;;;;;;16.05;48.12;95147.28;5041261;28;20544;-63
2021/09/12 01:52:15;;;;;;;12.10;5.70;;;;;;;16.01;47.91;95143.63;5050152;28;20469;-65
2021/09/12 01:54:42;;;;;;;8.63;5.13;;;;;;;15.72;48.91;95150.81;5043857;28;20973;-64
2021/09/12 01:57:09;;;;;;;13.07;5.50;;;;;;;15.49;49.61;95149.72;5043851;28;20454;-63
2021/09/12 01:59:36;;;;;;;8.03;5.60;;;;;;;15.47;49.64;95148.44;5050553;28;20965;-63
2021/09/12 02:02:03;;;;;;;9.03;5.60;;;;;;;15.33;49.49;95158.06;5046777;28;20445;-64
2021/09/12 02:04:30;;;;;;;11.97;5.63;;;;;;;15.09;50.21;95152.72;5053221;28;20434;-63
2021/09/12 02:06:57;;;;;;;13.03;5.67;;;;;;;15.26;49.53;95161.00;5069365;28;20963;-63
2021/09/12 02:09:27;;;;;;;11.90;5.40;;;;;;;15.51;50.06;95157.41;5063963;28;20470;-62
2021/09/12 02:11:54;;;;;;;8.60;5.43;;;;;;;15.50;49.98;95150.53;5058358;28;20819;-62
2021/09/12 02:14:21;;;;;;;9.03;5.53;;;;;;;15.55;49.54;95158.38;5052716;28;20460;-63
2021/09/12 02:16:48;;;;;;;16.93;5.43;;;;;;;15.38;50.03;95144.81;5050369;28;20431;-63
2021/09/12 02:19:16;;;;;;;10.13;5.13;;;;;;;15.53;49.09;95150.75;5039785;28;20451;-63
2021/09/12 02:21:43;;;;;;;7.27;5.40;;;;;;;15.51;50.06;95152.13;5044098;28;20851;-62
2021/09/12 02:24:10;;;;;;;10.40;5.47;;;;;;;15.49;49.96;95149.72;5030614;28;20479;-63
2021/09/12 02:26:37;;;;;;;7.83;5.60;;;;;;;15.37;50.04;95151.13;5045282;28;20466;-63
2021/09/12 02:29:04;;;;;;;8.60;5.43;;;;;;;15.48;50.13;95150.00;5050327;28;21011;-62
2021/09/12 02:31:31;;;;;;;9.43;4.93;;;;;;;15.48;49.71;95148.16;5036109;28;20455;-63
2021/09/12 02:33:58;;;;;;;7.13;5.20;;;;;;;15.51;49.15;95149.47;5038643;28;20454;-64
2021/09/12 02:36:25;;;;;;;8.73;5.17;;;;;;;15.22;50.39;95147.59;5051313;28;20438;-62
2021/09/12 02:38:52;;;;;;;12.07;5.47;;;;;;;15.35;49.99;95153.28;5042280;28;20439;-64
2021/09/12 02:41:18;;;;;;;10.23;6.17;;;;;;;15.24;50.41;95149.94;5060388;28;20477;-63
2021/09/12 02:43:46;;;;;;;8.57;5.17;;;;;;;15.16;50.48;95148.69;5061678;28;20578;-64
2021/09/12 02:46:13;;;;;;;10.83;5.47;;;;;;;15.10;50.69;95147.16;5038466;28;20467;-65
2021/09/12 02:48:40;;;;;;;9.60;5.20;;;;;;;15.29;49.51;95141.97;5035934;28;20447;-63
2021/09/12 02:51:07;;;;;;;12.03;5.50;;;;;;;15.20;50.44;95147.06;5035875;28;20470;-65
2021/09/12 02:53:34;;;;;;;10.07;5.40;;;;;;;15.29;50.15;95143.84;5050308;28;20431;-64
2021/09/12 02:56:00;;;;;;;8.23;5.00;;;;;;;15.19;49.79;95145.50;5049255;28;20963;-64
2021/09/12 02:58:27;;;;;;;8.77;5.40;;;;;;;15.19;49.48;95156.06;5049960;28;20466;-63
2021/09/12 03:00:54;;;;;;;10.20;5.33;;;;;;;15.18;49.98;95149.19;5047039;28;20478;-61
2021/09/12 03:03:22;;;;;;;8.80;5.03;;;;;;;15.15;50.34;95148.97;5029971;28;20440;-65
2021/09/12 03:05:49;;;;;;;8.00;5.23;;;;;;;15.12;49.60;95139.75;5062245;28;20478;-64
2021/09/12 03:08:16;;;;;;;8.47;5.40;;;;;;;15.08;49.75;95148.50;5049116;28;20447;-64
2021/09/12 03:10:43;;;;;;;10.70;4.97;;;;;;;15.18;49.65;95159.00;5042479;28;20478;-62
2021/09/12 03:13:10;;;;;;;8.37;5.00;;;;;;;15.16;49.92;95151.31;5049671;28;21094;-63
2021/09/12 03:15:36;;;;;;;7.70;5.23;;;;;;;15.17;49.35;95152.91;5049044;28;20488;-64
2021/09/12 03:18:03;;;;;;;9.63;5.27;;;;;;;15.02;50.06;95155.66;5034129;28;20444;-63
2021/09/12 03:20:31;;;;;;;11.03;5.97;;;;;;;14.97;50.03;95158.34;5037197;28;20496;-63
2021/09/12 03:22:58;;;;;;;14.43;5.87;;;;;;;15.02;50.29;95160.16;5049631;28;20870;-64
2021/09/12 03:25:25;;;;;;;12.47;6.30;;;;;;;15.03;50.24;95162.53;5043818;28;20471;-63
2021/09/12 03:27:53;;;;;;;11.63;5.80;;;;;;;15.01;50.57;95162.03;5040625;28;20443;-62
2021/09/12 03:30:21;;;;;;;9.77;5.60;;;;;;;15.05;50.45;95160.38;5035480;28;20439;-63
2021/09/12 03:32:48;;;;;;;8.37;5.50;;;;;;;14.98;50.53;95170.47;5049339;28;20443;-62
2021/09/12 03:35:15;;;;;;;10.93;5.57;;;;;;;14.78;51.19;95160.06;5050329;28;20521;-63
2021/09/12 03:37:42;;;;;;;7.90;5.87;;;;;;;14.89;50.88;95166.09;5052304;28;20446;-63
2021/09/12 03:40:10;;;;;;;11.83;5.70;;;;;;;14.88;51.16;95165.28;5049648;28;20968;-63
2021/09/12 03:42:37;;;;;;;10.03;5.93;;;;;;;14.94;50.13;95158.88;5065210;28;20475;-66
2021/09/12 03:45:05;;;;;;;10.60;6.00;;;;;;;14.73;50.73;95152.19;5059981;28;21233;-65
2021/09/12 03:47:32;;;;;;;10.53;6.40;;;;;;;14.69;50.66;95151.16;5054646;28;20439;-63
2021/09/12 03:49:59;;;;;;;19.67;6.60;;;;;;;14.75;50.31;95160.63;5055793;28;21000;-64
2021/09/12 03:52:25;;;;;;;11.03;6.27;;;;;;;13.98;51.26;95160.47;5055187;28;20430;-64
2021/09/12 03:54:52;;;;;;;13.07;6.63;;;;;;;14.31;51.62;95165.09;5055603;28;20501;-64
2021/09/12 03:57:23;;;;;;;8.20;5.93;;;;;;;14.40;50.34;95160.06;5053920;28;20485;-64
2021/09/12 03:59:52;;;;;;;12.83;6.33;;;;;;;14.46;50.64;95162.41;5035898;28;20505;-65
2021/09/12 04:02:19;;;;;;;13.53;6.93;;;;;;;14.59;50.78;95171.53;5048490;28;21242;-63
2021/09/12 04:04:47;;;;;;;9.97;6.23;;;;;;;14.55;51.03;95166.03;5047024;28;20517;-65
2021/09/12 04:07:13;;;;;;;11.23;6.47;;;;;;;14.48;50.86;95170.03;5060312;28;20943;-63
2021/09/12 04:09:40;;;;;;;7.80;6.23;;;;;;;14.59;50.84;95174.97;5060911;28;20439;-63
2021/09/12 04:12:08;;;;;;;7.30;5.53;;;;;;;14.53;51.46;95183.19;5057798;28;20450;-63
2021/09/12 04:14:35;;;;;;;13.07;6.77;;;;;;;14.60;51.17;95179.19;5054645;28;20454;-64
2021/09/12 04:17:02;;;;;;;11.90;6.33;;;;;;;14.65;50.83;95181.78;5045584;28;20501;-64
2021/09/12 04:19:29;;;;;;;13.30;6.10;;;;;;;14.65;50.49;95176.50;5045338;28;20477;-64
2021/09/12 04:21:56;;;;;;;14.40;6.27;;;;;;;14.76;50.32;95180.66;5052199;28;20439;-63
2021/09/12 04:24:24;;;;;;;11.80;6.27;;;;;;;14.75;50.16;95181.72;5052559;28;20450;-68
2021/09/12 04:26:51;;;;;;;12.17;5.80;;;;;;;14.75;50.41;95181.72;5051934;28;20481;-63
2021/09/12 04:29:19;;;;;;;12.90;5.63;;;;;;;14.75;49.95;95184.38;5052259;28;20462;-63
2021/09/12 04:31:46;;;;;;;11.63;6.57;;;;;;;14.78;50.64;95183.81;5049918;28;20442;-64
2021/09/12 04:34:13;;;;;;;14.27;6.40;;;;;;;14.80;50.04;95176.41;5040581;28;20442;-65
2021/09/12 04:36:39;;;;;;;14.47;6.67;;;;;;;14.81;49.87;95180.66;5043553;28;20444;-63
2021/09/12 04:39:06;;;;;;;10.60;6.57;;;;;;;14.85;49.22;95176.38;5032959;28;20440;-64
2021/09/12 04:41:33;;;;;;;12.50;7.20;;;;;;;14.72;49.59;95184.13;5053134;28;20812;-65
2021/09/12 04:44:00;;;;;;;9.97;6.63;;;;;;;14.90;49.17;95181.63;5057695;28;20921;-65
2021/09/12 04:46:27;;;;;;;9.50;6.60;;;;;;;14.84;49.20;95185.34;5042820;28;20540;-64
2021/09/12 04:48:54;;;;;;;11.70;6.67;;;;;;;14.82;48.66;95191.97;5037696;28;20431;-63
2021/09/12 04:51:23;;;;;;;10.60;6.63;;;;;;;14.77;48.36;95189.38;5051485;28;20864;-64
2021/09/12 04:53:52;;;;;;;10.10;6.27;;;;;;;14.85;47.62;95186.91;5050683;28;21321;-64
2021/09/12 04:56:19;;;;;;;17.37;6.37;;;;;;;14.75;48.04;95192.28;5051348;28;20447;-64
2021/09/12 04:58:45;;;;;;;10.00;6.17;;;;;;;14.91;47.73;95195.59;5052304;28;21050;-64
2021/09/12 05:01:12;;;;;;;12.83;6.70;;;;;;;14.86;48.36;95191.16;5037140;28;20449;-62
2021/09/12 05:03:41;;;;;;;11.63;7.00;;;;;;;14.90;48.21;95189.56;5035042;28;20848;-65
2021/09/12 05:06:08;;;;;;;10.67;6.73;;;;;;;14.87;48.20;95191.94;5038097;28;20553;-64
2021/09/12 05:08:35;;;;;;;10.47;6.20;;;;;;;14.88;48.01;95191.66;5034043;28;20444;-64
2021/09/12 05:11:03;;;;;;;10.40;6.67;;;;;;;14.88;48.60;95190.88;5032282;28;20980;-64
2021/09/12 05:13:31;;;;;;;12.13;6.67;;;;;;;14.99;48.49;95203.72;5045119;28;20490;-65
2021/09/12 05:15:57;;;;;;;9.73;6.37;;;;;;;14.94;48.03;95200.34;5035047;28;20447;-63
2021/09/12 05:18:24;;;;;;;11.17;6.87;;;;;;;15.12;48.58;95197.03;5033676;28;20451;-64
2021/09/12 05:20:51;;;;;;;13.67;7.37;;;;;;;15.12;48.62;95197.84;5039909;28;20957;-65
2021/09/12 05:23:22;;;;;;;13.90;7.37;;;;;;;14.97;49.33;95205.84;5047201;28;20444;-64
2021/09/12 05:25:50;;;;;;;12.47;7.50;;;;;;;15.15;48.59;95197.28;5050527;28;20463;-64
2021/09/12 05:28:17;;;;;;;8.50;7.30;;;;;;;15.32;48.41;95198.72;5046522;28;20455;-64
2021/09/12 05:30:44;;;;;;;11.53;7.57;;;;;;;15.35;48.14;95196.31;5050303;28;20435;-64
2021/09/12 05:33:11;;;;;;;13.80;7.10;;;;;;;15.35;47.63;95193.66;5042796;28;20506;-63
2021/09/12 05:35:38;;;;;;;12.83;7.83;;;;;;;15.48;47.60;95205.47;5051117;28;20590;-64
2021/09/12 05:38:06;;;;;;;14.50;7.97;;;;;;;15.60;47.84;95208.53;5049219;28;20446;-64
2021/09/12 05:40:33;;;;;;;12.33;8.07;;;;;;;15.66;48.41;95202.13;5049455;28;20441;-63
2021/09/12 05:43:00;;;;;;;12.83;7.90;;;;;;;15.43;47.91;95202.88;5046278;28;21009;-64
2021/09/12 05:45:27;;;;;;;12.40;8.77;;;;;;;15.59;48.38;95212.22;5049062;28;20447;-64
2021/09/12 05:47:54;;;;;;;11.30;8.60;;;;;;;15.59;49.16;95210.41;5052026;28;20509;-63
2021/09/12 05:50:21;;;;;;;15.37;8.93;;;;;;;15.72;48.74;95199.16;5051383;28;20450;-64
2021/09/12 05:52:48;;;;;;;16.23;9.70;;;;;;;15.73;49.26;95208.66;5044868;28;20443;-63
2021/09/12 05:55:15;;;;;;;14.27;9.37;;;;;;;15.76;48.33;95202.03;5030574;28;20543;-63
2021/09/12 05:57:42;;;;;;;13.17;9.50;;;;;;;15.79;48.18;95206.75;5050173;28;20447;-64
2021/09/12 06:00:10;;;;;;;15.20;9.53;;;;;;;15.83;48.20;95199.84;5053691;28;21026;-64
2021/09/12 06:02:38;;;;;;;14.87;9.17;;;;;;;15.89;48.74;95206.66;5052752;28;20446;-64
2021/09/12 06:05:06;;;;;;;25.53;14.70;;;;;;;16.03;46.86;95186.41;5050819;28;20995;-62
2021/09/12 06:07:33;;;;;;;20.67;11.10;;;;;;;16.10;46.97;95197.44;5038757;28;20537;-65
2021/09/12 06:10:00;;;;;;;13.97;9.43;;;;;;;16.16;47.93;95193.69;5037516;28;20554;-64
2021/09/12 06:12:27;;;;;;;13.63;8.63;;;;;;;15.82;47.69;95200.94;5031885;28;20439;-63
2021/09/12 06:14:53;;;;;;;15.10;8.03;;;;;;;16.01;46.67;95199.13;5030506;28;20444;-63
2021/09/12 06:17:20;;;;;;;8.47;7.43;;;;;;;16.00;46.63;95192.28;5029368;28;20459;-63
2021/09/12 06:19:48;;;;;;;14.27;8.60;;;;;;;16.21;48.83;95202.34;5028827;28;20436;-63
2021/09/12 06:22:15;;;;;;;22.17;16.00;;;;;;;16.32;48.04;95195.06;5035948;28;20969;-65
2021/09/12 06:24:44;;;;;;;32.73;18.60;;;;;;;16.57;47.20;95202.69;5036543;28;20448;-64
2021/09/12 06:27:11;;;;;;;16.67;13.60;;;;;;;16.37;48.23;95192.34;5031227;28;21005;-66
2021/09/12 06:29:38;;;;;;;12.90;7.83;;;;;;;16.75;47.81;95193.22;5029936;28;20925;-66
2021/09/12 06:32:05;;;;;;;16.40;7.30;;;;;;;16.59;47.44;95203.19;5036972;28;20442;-63
2021/09/12 06:34:32;;;;;;;12.80;8.50;;;;;;;16.73;46.62;95201.41;5029122;28;20443;-65
2021/09/12 06:36:59;;;;;;;16.23;10.97;;;;;;;17.00;45.97;95200.78;5031089;28;20457;-65
2021/09/12 06:39:26;;;;;;;29.03;21.10;;;;;;;16.79;48.83;95199.47;5034456;28;20962;-65
2021/09/12 06:41:53;;;;;;;19.57;14.30;;;;;;;16.96;47.35;95199.78;5032657;28;20436;-61
2021/09/12 06:44:20;;;;;;;20.13;7.40;;;;;;;16.96;47.31;95197.91;5038162;28;20528;-64
2021/09/12 06:46:47;;;;;;;15.30;8.13;;;;;;;16.96;48.05;95195.28;5046039;28;20536;-66
2021/09/12 06:49:14;;;;;;;18.33;11.07;;;;;;;17.08;47.50;95198.25;5046785;28;20454;-65
2021/09/12 06:51:41;;;;;;;12.80;8.50;;;;;;;17.16;46.72;95197.63;5042046;28;20453;-64
2021/09/12 06:54:08;;;;;;;17.60;8.27;;;;;;;17.16;46.91;95204.75;5040996;28;20947;-64
2021/09/12 06:56:35;;;;;;;11.43;7.60;;;;;;;17.38;45.74;95202.28;5037484;28;20439;-64
2021/09/12 06:59:02;;;;;;;14.90;7.30;;;;;;;17.16;46.20;95199.47;5042166;28;20446;-63
2021/09/12 07:01:29;;;;;;;18.13;12.77;;;;;;;17.72;46.09;95199.34;5030631;28;20446;-63
2021/09/12 07:03:56;;;;;;;8.70;6.90;;;;;;;17.67;46.58;95194.94;5039940;28;20439;-63
2021/09/12 07:06:23;;;;;;;13.00;6.43;;;;;;;17.77;46.13;95201.94;5042212;28;20474;-65
2021/09/12 07:08:51;;;;;;;12.23;7.27;;;;;;;18.07;45.05;95196.06;5041144;28;20539;-63
2021/09/12 07:11:17;;;;;;;9.63;7.03;;;;;;;18.32;43.67;95205.41;5047139;28;20442;-63
2021/09/12 07:13:44;;;;;;;17.77;10.63;;;;;;;18.25;44.87;95208.44;5043196;28;20454;-66
2021/09/12 07:16:11;;;;;;;13.70;7.17;;;;;;;18.47;43.65;95200.59;5040660;28;20447;-71
2021/09/12 07:18:38;;;;;;;53.83;42.97;;;;;;;18.63;43.91;95201.84;5040991;28;20706;-64
2021/09/12 07:21:05;;;;;;;11.60;8.17;;;;;;;18.63;43.00;95196.53;5043041;28;20444;-70
2021/09/12 07:23:32;;;;;;;12.30;7.90;;;;;;;18.88;43.23;95193.34;5042524;28;20991;-68
2021/09/12 07:25:59;;;;;;;13.43;6.93;;;;;;;18.81;41.85;95187.63;5048505;28;20469;-65
2021/09/12 07:28:30;;;;;;;9.47;6.03;;;;;;;18.81;42.14;95195.59;5042036;28;20192;-67
2021/09/12 07:30:57;;;;;;;7.80;5.90;;;;;;;18.93;43.09;95193.22;5040596;28;20438;-66
2021/09/12 07:33:24;;;;;;;10.53;6.13;;;;;;;18.94;42.31;95170.13;5040283;28;20324;-66
2021/09/12 07:35:51;;;;;;;10.63;6.53;;;;;;;19.09;43.33;95189.13;5041966;28;20502;-66
2021/09/12 07:38:18;;;;;;;9.33;6.17;;;;;;;18.97;42.40;95186.22;5043773;28;20443;-66
2021/09/12 07:40:46;;;;;;;13.63;6.00;;;;;;;19.16;40.89;95178.88;5042174;28;20509;-67
2021/09/12 07:43:13;;;;;;;9.63;5.83;;;;;;;19.18;42.70;95179.34;5047255;28;20483;-68
2021/09/12 07:45:40;;;;;;;10.63;5.50;;;;;;;19.40;41.11;95183.09;5037261;28;20205;-64
2021/09/12 07:48:07;;;;;;;8.73;6.10;;;;;;;19.56;40.94;95179.78;5039031;28;20289;-66
2021/09/12 07:50:34;;;;;;;170.00;145.33;;;;;;;19.63;41.74;95171.38;5048483;28;20193;-64
2021/09/12 07:53:02;;;;;;;26.27;17.17;;;;;;;19.67;39.74;95177.66;5054753;28;20210;-67
2021/09/12 07:55:29;;;;;;;16.53;8.97;;;;;;;19.86;40.40;95175.56;5045401;28;20193;-66
2021/09/12 07:57:56;;;;;;;10.93;7.07;;;;;;;19.83;39.69;95176.16;5048915;28;20239;-66
2021/09/12 08:00:23;;;;;;;13.17;6.63;;;;;;;20.00;38.98;95170.91;5034712;28;20209;-66
2021/09/12 08:02:50;;;;;;;11.30;6.43;;;;;;;19.82;39.92;95163.94;5044942;28;20250;-65
2021/09/12 08:05:19;;;;;;;11.97;5.23;;;;;;;19.90;41.57;95171.19;5047564;28;20284;-66
2021/09/12 08:07:46;;;;;;;8.10;5.60;;;;;;;19.98;40.95;95162.47;5046636;28;20939;-66
2021/09/12 08:10:13;;;;;;;11.50;6.30;;;;;;;20.27;40.19;95162.75;5047487;28;20203;-65
2021/09/12 08:12:40;;;;;;;9.50;6.23;;;;;;;20.54;39.81;95159.03;5033957;28;20204;-66
2021/09/12 08:15:08;;;;;;;10.43;5.90;;;;;;;20.49;39.90;95157.31;5049444;28;20276;-67
2021/09/12 08:17:35;;;;;;;8.27;5.87;;;;;;;20.34;38.79;95165.75;5039263;28;20292;-67
2021/09/12 08:20:02;;;;;;;11.27;6.40;;;;;;;20.38;39.24;95161.38;5047771;28;20180;-66
2021/09/12 08:22:30;;;;;;;9.60;5.57;;;;;;;20.72;39.55;95161.44;5039088;28;20205;-67
2021/09/12 08:24:57;;;;;;;14.53;5.93;;;;;;;20.92;38.42;95160.03;5030998;28;20279;-66
2021/09/12 08:27:24;;;;;;;12.90;6.63;;;;;;;21.05;38.93;95153.78;5040667;28;20233;-65
2021/09/12 08:29:51;;;;;;;12.07;6.30;;;;;;;20.86;40.55;95148.75;5031945;28;20263;-67
2021/09/12 08:32:18;;;;;;;9.23;5.90;;;;;;;20.99;40.97;95142.50;5032382;28;20194;-67
2021/09/12 08:34:44;;;;;;;13.33;5.33;;;;;;;21.30;39.10;95141.50;5032709;28;20196;-66
2021/09/12 08:37:11;;;;;;;14.50;6.20;;;;;;;21.48;37.84;95135.06;5050364;28;20232;-66
2021/09/12 08:39:38;;;;;;;11.23;5.80;;;;;;;21.34;37.68;95129.91;5052908;28;20200;-66
2021/09/12 08:42:05;;;;;;;12.63;5.93;;;;;;;21.65;38.20;95127.00;5051751;28;20201;-66
2021/09/12 08:44:34;;;;;;;14.93;5.60;;;;;;;21.73;37.14;95128.88;5042905;28;20236;-66
2021/09/12 08:47:01;;;;;;;10.30;5.43;;;;;;;21.91;37.16;95117.06;5046331;28;20224;-66
2021/09/12 08:49:28;;;;;;;11.23;5.87;;;;;;;21.92;36.09;95121.28;5034228;28;20207;-65
2021/09/12 08:51:55;;;;;;;12.03;5.87;;;;;;;22.12;37.00;95117.91;5032084;28;20197;-65
2021/09/12 08:54:22;;;;;;;10.30;5.87;;;;;;;21.99;37.77;95113.56;5050681;28;20208;-65
2021/09/12 08:56:49;;;;;;;17.27;6.47;;;;;;;22.31;36.83;95104.94;5041477;28;20193;-65
2021/09/12 08:59:28;;;;;;;8.70;4.67;;;;;;;22.41;35.54;95112.53;5048634;28;20200;-66
2021/09/12 09:01:57;;;;;;;8.33;5.37;;;;;;;22.61;35.72;95105.69;5051987;28;20207;-67
2021/09/12 09:04:32;;;;;;;9.80;5.50;;;;;;;22.92;35.37;95104.19;5052485;28;20269;-66
2021/09/12 09:07:03;;;;;;;10.10;6.10;;;;;;;22.99;34.72;95093.72;5042694;28;20238;-65
2021/09/12 09:09:50;;;;;;;14.93;6.37;;;;;;;23.10;36.09;95089.53;5047504;28;20213;-66
2021/09/12 09:12:34;;;;;;;8.87;5.50;;;;;;;23.30;36.24;95087.19;5043571;28;20193;-66
2021/09/12 09:15:06;;;;;;;9.77;5.47;;;;;;;23.42;33.10;95084.53;5038164;28;20203;-66
2021/09/12 09:17:45;;;;;;;9.93;5.73;;;;;;;23.39;32.69;95082.53;5038192;28;20754;-67
2021/09/12 09:20:27;;;;;;;9.97;5.77;;;;;;;23.44;32.68;95087.66;5045546;28;20259;-67
2021/09/12 09:22:57;;;;;;;12.23;6.20;;;;;;;23.57;33.50;95086.59;5044198;28;20200;-66
2021/09/12 09:25:26;;;;;;;12.53;5.73;;;;;;;23.98;34.62;95075.69;5037708;28;20208;-66
2021/09/12 09:28:07;;;;;;;7.23;5.40;;;;;;;24.23;34.91;95077.28;5050951;28;20224;-66
2021/09/12 09:31:01;;;;;;;9.07;5.57;;;;;;;24.45;33.31;95068.75;5051690;28;20215;-66
2021/09/12 09:33:29;;;;;;;11.23;5.53;;;;;;;24.73;32.73;95068.81;5052415;28;20200;-67
2021/09/12 09:36:04;;;;;;;15.13;5.60;;;;;;;25.03;31.87;95068.16;5053371;28;21039;-66
2021/09/12 09:38:38;;;;;;;65.60;48.33;;;;;;;25.12;29.35;95059.16;5038020;28;20228;-65
2021/09/12 09:41:10;;;;;;;16.07;7.33;;;;;;;24.91;30.19;95054.78;5041564;28;20283;-67
2021/09/12 09:43:48;;;;;;;15.63;6.87;;;;;;;25.11;30.25;95057.63;5052291;28;20620;-67
2021/09/12 09:46:40;;;;;;;8.03;6.07;;;;;;;25.29;30.75;95053.50;5041821;28;20205;-67
2021/09/12 09:49:20;;;;;;;10.20;5.57;;;;;;;25.45;29.85;95051.66;5034239;28;20670;-66
2021/09/12 09:51:58;;;;;;;10.97;5.10;;;;;;;25.58;28.40;95050.44;5039401;28;20235;-66
2021/09/12 09:54:33;;;;;;;12.80;5.40;;;;;;;25.31;28.12;95056.63;5049697;28;20200;-66
2021/09/12 09:57:01;;;;;;;8.23;5.17;;;;;;;25.46;29.35;95042.47;5038077;28;20207;-66
2021/09/12 09:59:29;;;;;;;13.43;5.53;;;;;;;25.63;29.43;95050.19;5035204;28;20199;-67
2021/09/12 10:01:58;;;;;;;11.63;5.13;;;;;;;25.89;27.94;95050.44;5050626;28;20200;-67
2021/09/12 10:04:28;;;;;;;7.30;5.07;;;;;;;25.96;27.58;95045.22;5050302;28;20223;-66
2021/09/12 10:06:56;;;;;;;11.30;5.67;;;;;;;25.82;27.09;95036.84;5050526;28;20196;-66
2021/09/12 10:09:23;;;;;;;14.00;5.53;;;;;;;25.85;27.36;95034.25;5049377;28;20513;-66
2021/09/12 10:11:53;;;;;;;12.03;5.30;;;;;;;26.04;27.30;95030.84;5049875;28;20204;-66
2021/09/12 10:14:35;;;;;;;12.43;5.57;;;;;;;26.15;27.32;95026.50;5051000;28;20270;-65
2021/09/12 10:17:04;;;;;;;10.70;6.03;;;;;;;26.01;29.70;95026.16;5050676;28;20320;-65
2021/09/12 10:19:39;;;;;;;11.93;5.47;;;;;;;26.20;27.21;95028.94;5038352;28;20625;-66
2021/09/12 10:22:12;;;;;;;9.77;5.57;;;;;;;26.26;27.88;95022.16;5030474;28;20197;-67
2021/09/12 10:25:00;;;;;;;11.03;5.13;;;;;;;26.49;28.08;95028.41;5043774;28;20215;-68
2021/09/12 10:27:37;;;;;;;9.83;5.30;;;;;;;26.42;27.37;95020.19;5030066;28;20738;-67
2021/09/12 10:30:21;;;;;;;10.60;5.67;;;;;;;26.44;26.11;95012.56;5030287;28;20200;-68
2021/09/12 10:32:50;;;;;;;30.07;19.30;;;;;;;26.53;27.85;95026.56;5040076;28;20200;-66
2021/09/12 10:35:18;;;;;;;13.50;5.57;;;;;;;26.70;27.08;95014.66;5036021;28;20211;-69
2021/09/12 10:37:59;;;;;;;8.53;4.60;;;;;;;26.63;26.58;95012.56;5041065;28;20215;-67
2021/09/12 10:40:44;;;;;;;9.37;5.90;;;;;;;26.71;27.22;95016.22;5029536;28;20197;-66
2021/09/12 10:43:37;;;;;;;6.43;4.87;;;;;;;26.62;nan;95004.88;5042264;28;20243;-66
2021/09/12 10:46:04;;;;;;;9.23;5.20;;;;;;;26.86;26.47;95007.31;5029109;28;20198;-67
2021/09/12 10:48:51;;;;;;;12.53;5.20;;;;;;;27.06;28.02;95005.38;5045803;28;20259;-67
2021/09/12 10:51:18;;;;;;;10.53;5.13;;;;;;;26.97;28.64;95008.25;5049510;28;20189;-67
2021/09/12 10:53:45;;;;;;;5.50;4.47;;;;;;;27.00;27.68;95007.56;5049634;28;20200;-66
2021/09/12 10:56:30;;;;;;;7.10;5.40;;;;;;;27.25;26.93;95003.41;5035550;28;20207;-66
2021/09/12 10:59:10;;;;;;;9.47;4.83;;;;;;;26.77;25.64;94999.44;5050260;28;20247;-66
2021/09/12 11:01:45;;;;;;;9.97;4.87;;;;;;;26.76;26.06;94997.91;5041313;28;20292;-66
2021/09/12 11:04:15;;;;;;;7.93;4.40;;;;;;;26.90;25.91;94995.47;5045497;28;20631;-66
2021/09/12 11:06:44;;;;;;;10.40;4.47;;;;;;;26.81;25.56;94994.91;5049604;28;20200;-67
2021/09/12 11:09:19;;;;;;;12.27;4.70;;;;;;;27.18;25.93;94997.13;5049490;28;20255;-68
2021/09/12 11:11:46;;;;;;;7.37;4.70;;;;;;;27.40;26.71;95001.78;5029878;28;20201;-67
2021/09/12 11:14:17;;;;;;;10.70;4.57;;;;;;;27.32;27.08;94997.38;5030202;28;20263;-67
2021/09/12 11:16:45;;;;;;;8.97;4.67;;;;;;;27.22;25.17;94987.19;5033570;28;20192;-67
2021/09/12 11:19:12;;;;;;;10.33;4.83;;;;;;;27.57;25.93;94982.44;5049690;28;20200;-67
2021/09/12 11:21:45;;;;;;;6.47;4.43;;;;;;;27.28;25.38;94980.41;5049550;28;20230;-66
2021/09/12 11:24:16;;;;;;;7.47;4.53;;;;;;;27.25;27.77;94978.41;5049203;28;20227;-67
2021/09/12 11:26:49;;;;;;;8.97;4.57;;;;;;;27.37;26.11;94967.50;5032459;28;20549;-67
2021/09/12 11:29:19;;;;;;;7.70;4.70;;;;;;;27.18;26.63;94981.75;5038865;28;20319;-66
2021/09/12 11:31:50;;;;;;;7.03;4.37;;;;;;;27.04;26.88;94971.50;5048900;28;20204;-66
2021/09/12 11:34:19;;;;;;;8.07;4.47;;;;;;;27.37;26.29;94962.88;5049931;28;20286;-67